sensor_id;sensor_type;location;lat;lon;timestamp;pressure;altitude;pressure_sealevel;temperature;humidity
12536;BME280;6334;48.696;2.114;2023-05-25T00:00:03;100540.41;;;15.90;58.10
12536;BME280;6334;48.696;2.114;2023-05-25T00:02:33;100534.33;;;15.70;58.77
12536;BME280;6334;48.696;2.114;2023-05-25T00:05:03;100538.26;;;15.82;57.59
12536;BME280;6334;48.696;2.114;2023-05-25T00:07:33;100545.15;;;15.35;60.71
12536;BME280;6334;48.696;2.114;2023-05-25T00:10:04;100533.69;;;15.65;59.34
12536;BME280;6334;48.696;2.114;2023-05-25T00:12:34;100535.33;;;15.73;58.93
12536;BME280;6334;48.696;2.114;2023-05-25T00:15:04;100531.14;;;15.73;59.53
12536;BME280;6334;48.696;2.114;2023-05-25T00:17:36;100542.33;;;15.30;60.93
12536;BME280;6334;48.696;2.114;2023-05-25T00:20:06;100531.95;;;15.54;60.20
12536;BME280;6334;48.696;2.114;2023-05-25T00:22:37;100532.36;;;15.57;58.32
12536;BME280;6334;48.696;2.114;2023-05-25T00:25:08;100536.58;;;15.85;57.69
12536;BME280;6334;48.696;2.114;2023-05-25T00:27:38;100540.89;;;15.62;58.56
12536;BME280;6334;48.696;2.114;2023-05-25T00:30:09;100532.58;;;15.70;57.99
12536;BME280;6334;48.696;2.114;2023-05-25T00:32:39;100533.16;;;15.74;58.36
12536;BME280;6334;48.696;2.114;2023-05-25T00:35:10;100542.20;;;15.25;61.49
12536;BME280;6334;48.696;2.114;2023-05-25T00:37:40;100528.87;;;15.56;59.28
12536;BME280;6334;48.696;2.114;2023-05-25T00:40:12;100524.52;;;15.70;58.15
12536;BME280;6334;48.696;2.114;2023-05-25T00:42:41;100533.11;;;15.18;61.19
12536;BME280;6334;48.696;2.114;2023-05-25T00:45:12;100528.36;;;15.19;61.09
12536;BME280;6334;48.696;2.114;2023-05-25T00:47:42;100524.81;;;15.64;57.82
12536;BME280;6334;48.696;2.114;2023-05-25T00:50:14;100526.85;;;15.35;60.28
12536;BME280;6334;48.696;2.114;2023-05-25T00:52:44;100527.09;;;15.47;59.28
12536;BME280;6334;48.696;2.114;2023-05-25T00:55:15;100525.63;;;15.56;58.65
12536;BME280;6334;48.696;2.114;2023-05-25T00:57:46;100531.68;;;15.12;59.98
12536;BME280;6334;48.696;2.114;2023-05-25T01:00:16;100532.55;;;15.36;59.01
12536;BME280;6334;48.696;2.114;2023-05-25T01:02:47;100527.14;;;15.55;58.40
12536;BME280;6334;48.696;2.114;2023-05-25T01:05:17;100530.98;;;15.13;59.22
12536;BME280;6334;48.696;2.114;2023-05-25T01:07:47;100525.00;;;15.43;58.34
12536;BME280;6334;48.696;2.114;2023-05-25T01:10:19;100526.75;;;15.30;60.00
12536;BME280;6334;48.696;2.114;2023-05-25T01:12:49;100525.22;;;15.12;59.79
12536;BME280;6334;48.696;2.114;2023-05-25T01:15:19;100527.42;;;15.08;59.06
12536;BME280;6334;48.696;2.114;2023-05-25T01:17:49;100520.47;;;14.51;62.17
12536;BME280;6334;48.696;2.114;2023-05-25T01:20:20;100518.23;;;14.68;60.84
12536;BME280;6334;48.696;2.114;2023-05-25T01:22:53;100513.64;;;14.86;61.82
12536;BME280;6334;48.696;2.114;2023-05-25T01:28:36;100519.39;;;15.14;59.53
12536;BME280;6334;48.696;2.114;2023-05-25T01:30:38;100516.41;;;14.63;60.61
12536;BME280;6334;48.696;2.114;2023-05-25T01:33:08;100521.27;;;14.42;62.33
12536;BME280;6334;48.696;2.114;2023-05-25T01:35:38;100519.75;;;14.12;64.17
12536;BME280;6334;48.696;2.114;2023-05-25T01:38:08;100523.16;;;14.76;61.70
12536;BME280;6334;48.696;2.114;2023-05-25T01:40:39;100523.73;;;14.35;61.81
12536;BME280;6334;48.696;2.114;2023-05-25T01:43:09;100520.08;;;14.63;62.42
12536;BME280;6334;48.696;2.114;2023-05-25T01:45:39;100520.03;;;14.57;60.90
12536;BME280;6334;48.696;2.114;2023-05-25T01:48:35;100524.05;;;14.27;62.29
12536;BME280;6334;48.696;2.114;2023-05-25T01:51:24;100528.17;;;14.47;61.86
12536;BME280;6334;48.696;2.114;2023-05-25T01:53:55;100526.86;;;13.88;63.32
12536;BME280;6334;48.696;2.114;2023-05-25T01:56:22;100530.02;;;14.30;62.15
12536;BME280;6334;48.696;2.114;2023-05-25T01:58:53;100531.06;;;14.28;62.83
12536;BME280;6334;48.696;2.114;2023-05-25T02:01:23;100526.51;;;13.99;63.11
12536;BME280;6334;48.696;2.114;2023-05-25T02:03:54;100529.27;;;14.08;62.86
12536;BME280;6334;48.696;2.114;2023-05-25T02:06:24;100527.39;;;13.91;64.58
12536;BME280;6334;48.696;2.114;2023-05-25T02:08:54;100525.31;;;13.75;63.75
12536;BME280;6334;48.696;2.114;2023-05-25T02:11:24;100529.64;;;14.06;63.98
12536;BME280;6334;48.696;2.114;2023-05-25T02:13:55;100530.89;;;13.86;63.77
12536;BME280;6334;48.696;2.114;2023-05-25T02:16:25;100529.44;;;13.68;64.08
12536;BME280;6334;48.696;2.114;2023-05-25T02:18:55;100531.95;;;13.88;63.27
12536;BME280;6334;48.696;2.114;2023-05-25T02:21:26;100531.16;;;13.82;64.71
12536;BME280;6334;48.696;2.114;2023-05-25T02:23:56;100532.31;;;13.97;64.76
12536;BME280;6334;48.696;2.114;2023-05-25T02:26:26;100530.97;;;13.78;64.70
12536;BME280;6334;48.696;2.114;2023-05-25T02:28:56;100533.88;;;13.47;66.04
12536;BME280;6334;48.696;2.114;2023-05-25T02:31:27;100539.52;;;13.61;64.55
12536;BME280;6334;48.696;2.114;2023-05-25T02:33:57;100539.16;;;13.62;64.23
12536;BME280;6334;48.696;2.114;2023-05-25T02:36:27;100541.83;;;13.48;64.86
12536;BME280;6334;48.696;2.114;2023-05-25T02:38:57;100542.90;;;13.43;65.03
12536;BME280;6334;48.696;2.114;2023-05-25T02:41:28;100550.09;;;13.37;64.85
12536;BME280;6334;48.696;2.114;2023-05-25T02:43:58;100551.91;;;13.50;64.71
12536;BME280;6334;48.696;2.114;2023-05-25T02:46:29;100549.19;;;13.36;65.89
12536;BME280;6334;48.696;2.114;2023-05-25T02:49:00;100547.52;;;13.31;65.10
12536;BME280;6334;48.696;2.114;2023-05-25T02:51:30;100552.88;;;13.46;64.65
12536;BME280;6334;48.696;2.114;2023-05-25T02:54:00;100553.23;;;13.34;65.91
12536;BME280;6334;48.696;2.114;2023-05-25T02:56:30;100554.56;;;13.15;66.31
12536;BME280;6334;48.696;2.114;2023-05-25T02:59:01;100554.48;;;13.02;66.47
12536;BME280;6334;48.696;2.114;2023-05-25T03:01:32;100551.31;;;13.09;65.22
12536;BME280;6334;48.696;2.114;2023-05-25T03:04:02;100560.63;;;13.31;64.38
12536;BME280;6334;48.696;2.114;2023-05-25T03:06:33;100562.19;;;13.07;66.33
12536;BME280;6334;48.696;2.114;2023-05-25T03:09:03;100560.77;;;13.01;66.71
12536;BME280;6334;48.696;2.114;2023-05-25T03:11:34;100566.03;;;12.96;65.62
12536;BME280;6334;48.696;2.114;2023-05-25T03:14:04;100564.75;;;13.10;65.30
12536;BME280;6334;48.696;2.114;2023-05-25T03:16:35;100565.90;;;13.23;65.52
12536;BME280;6334;48.696;2.114;2023-05-25T03:19:05;100564.27;;;12.96;65.12
12536;BME280;6334;48.696;2.114;2023-05-25T03:21:36;100554.44;;;13.18;64.57
12536;BME280;6334;48.696;2.114;2023-05-25T03:24:07;100562.73;;;13.46;64.26
12536;BME280;6334;48.696;2.114;2023-05-25T03:26:38;100560.42;;;13.09;64.71
12536;BME280;6334;48.696;2.114;2023-05-25T03:29:09;100566.47;;;13.49;63.77
12536;BME280;6334;48.696;2.114;2023-05-25T03:31:39;100576.60;;;13.59;63.63
12536;BME280;6334;48.696;2.114;2023-05-25T03:34:10;100577.86;;;13.28;65.28
12536;BME280;6334;48.696;2.114;2023-05-25T03:36:41;100577.51;;;13.11;65.19
12536;BME280;6334;48.696;2.114;2023-05-25T03:39:12;100579.47;;;13.03;64.65
12536;BME280;6334;48.696;2.114;2023-05-25T03:41:42;100580.98;;;12.82;64.99
12536;BME280;6334;48.696;2.114;2023-05-25T03:44:13;100581.12;;;12.84;65.46
12536;BME280;6334;48.696;2.114;2023-05-25T03:46:44;100588.17;;;12.82;66.38
12536;BME280;6334;48.696;2.114;2023-05-25T03:49:15;100592.70;;;12.86;65.22
12536;BME280;6334;48.696;2.114;2023-05-25T03:51:45;100586.37;;;12.92;64.52
12536;BME280;6334;48.696;2.114;2023-05-25T03:54:15;100585.59;;;13.01;64.59
12536;BME280;6334;48.696;2.114;2023-05-25T03:56:45;100587.30;;;12.69;66.25
12536;BME280;6334;48.696;2.114;2023-05-25T03:59:16;100589.17;;;12.73;66.43
12536;BME280;6334;48.696;2.114;2023-05-25T04:01:46;100590.88;;;12.63;65.74
12536;BME280;6334;48.696;2.114;2023-05-25T04:04:17;100588.50;;;13.01;65.09
12536;BME280;6334;48.696;2.114;2023-05-25T04:06:47;100592.51;;;12.54;66.40
12536;BME280;6334;48.696;2.114;2023-05-25T04:09:18;100590.48;;;12.96;64.16
12536;BME280;6334;48.696;2.114;2023-05-25T04:11:48;100581.75;;;12.73;65.01
12536;BME280;6334;48.696;2.114;2023-05-25T04:14:18;100584.67;;;12.60;65.46
12536;BME280;6334;48.696;2.114;2023-05-25T04:16:48;100585.99;;;12.45;65.72
12536;BME280;6334;48.696;2.114;2023-05-25T04:19:19;100587.45;;;12.65;65.05
12536;BME280;6334;48.696;2.114;2023-05-25T04:21:49;100581.78;;;12.49;66.29
12536;BME280;6334;48.696;2.114;2023-05-25T04:24:20;100576.84;;;12.58;64.76
12536;BME280;6334;48.696;2.114;2023-05-25T04:26:49;100580.38;;;12.62;65.68
12536;BME280;6334;48.696;2.114;2023-05-25T04:29:20;100578.35;;;12.71;64.40
12536;BME280;6334;48.696;2.114;2023-05-25T04:31:51;100568.92;;;12.34;66.42
12536;BME280;6334;48.696;2.114;2023-05-25T04:34:22;100581.91;;;12.59;65.19
12536;BME280;6334;48.696;2.114;2023-05-25T04:36:53;100583.18;;;12.72;65.49
12536;BME280;6334;48.696;2.114;2023-05-25T04:39:24;100589.32;;;12.68;64.71
12536;BME280;6334;48.696;2.114;2023-05-25T04:41:55;100589.02;;;12.36;65.62
12536;BME280;6334;48.696;2.114;2023-05-25T04:44:25;100597.11;;;12.57;65.36
12536;BME280;6334;48.696;2.114;2023-05-25T04:46:55;100598.92;;;12.82;64.60
12536;BME280;6334;48.696;2.114;2023-05-25T04:49:28;100599.63;;;12.25;66.54
12536;BME280;6334;48.696;2.114;2023-05-25T04:51:59;100598.02;;;12.80;64.33
12536;BME280;6334;48.696;2.114;2023-05-25T04:54:29;100600.89;;;12.34;66.56
12536;BME280;6334;48.696;2.114;2023-05-25T04:57:00;100599.30;;;12.35;66.94
12536;BME280;6334;48.696;2.114;2023-05-25T04:59:29;100604.61;;;12.19;67.41
12536;BME280;6334;48.696;2.114;2023-05-25T05:02:00;100588.52;;;12.19;67.04
12536;BME280;6334;48.696;2.114;2023-05-25T05:04:30;100615.58;;;12.70;65.86
12536;BME280;6334;48.696;2.114;2023-05-25T05:07:01;100615.61;;;12.83;65.02
12536;BME280;6334;48.696;2.114;2023-05-25T05:09:31;100612.22;;;12.59;65.90
12536;BME280;6334;48.696;2.114;2023-05-25T05:12:02;100622.73;;;12.59;65.28
12536;BME280;6334;48.696;2.114;2023-05-25T05:14:32;100622.40;;;12.42;66.36
12536;BME280;6334;48.696;2.114;2023-05-25T05:17:02;100628.23;;;12.67;65.35
12536;BME280;6334;48.696;2.114;2023-05-25T05:19:33;100631.72;;;12.62;65.96
12536;BME280;6334;48.696;2.114;2023-05-25T05:22:03;100632.56;;;12.83;65.61
12536;BME280;6334;48.696;2.114;2023-05-25T05:24:34;100633.38;;;12.47;66.20
12536;BME280;6334;48.696;2.114;2023-05-25T05:27:04;100630.28;;;12.71;64.44
12536;BME280;6334;48.696;2.114;2023-05-25T05:29:35;100624.06;;;12.75;64.43
12536;BME280;6334;48.696;2.114;2023-05-25T05:34:39;100616.80;;;13.16;63.51
12536;BME280;6334;48.696;2.114;2023-05-25T05:37:10;100617.58;;;12.85;64.70
12536;BME280;6334;48.696;2.114;2023-05-25T05:39:40;100621.23;;;13.27;63.39
12536;BME280;6334;48.696;2.114;2023-05-25T05:42:11;100626.95;;;13.07;64.34
12536;BME280;6334;48.696;2.114;2023-05-25T05:44:41;100636.97;;;12.77;65.55
12536;BME280;6334;48.696;2.114;2023-05-25T05:49:41;100631.73;;;14.37;64.26
12536;BME280;6334;48.696;2.114;2023-05-25T05:52:11;100637.92;;;13.66;62.58
12536;BME280;6334;48.696;2.114;2023-05-25T05:54:41;100640.77;;;13.72;62.59
12536;BME280;6334;48.696;2.114;2023-05-25T05:57:13;100643.55;;;13.92;61.39
12536;BME280;6334;48.696;2.114;2023-05-25T05:59:42;100643.19;;;13.50;62.99
12536;BME280;6334;48.696;2.114;2023-05-25T06:02:12;100641.89;;;13.48;61.59
12536;BME280;6334;48.696;2.114;2023-05-25T06:04:42;100642.17;;;13.89;61.23
12536;BME280;6334;48.696;2.114;2023-05-25T06:07:12;100638.48;;;13.69;61.52
12536;BME280;6334;48.696;2.114;2023-05-25T06:09:42;100644.66;;;13.86;60.17
12536;BME280;6334;48.696;2.114;2023-05-25T06:14:46;100649.63;;;14.34;58.73
12536;BME280;6334;48.696;2.114;2023-05-25T06:17:16;100644.87;;;14.14;59.62
12536;BME280;6334;48.696;2.114;2023-05-25T06:19:47;100652.48;;;14.49;58.21
12536;BME280;6334;48.696;2.114;2023-05-25T06:22:18;100656.78;;;14.55;57.42
12536;BME280;6334;48.696;2.114;2023-05-25T06:24:48;100657.61;;;14.56;57.19
12536;BME280;6334;48.696;2.114;2023-05-25T06:27:18;100664.73;;;14.56;57.07
12536;BME280;6334;48.696;2.114;2023-05-25T06:29:47;100666.88;;;15.28;55.13
12536;BME280;6334;48.696;2.114;2023-05-25T06:32:22;100670.88;;;15.28;55.17
12536;BME280;6334;48.696;2.114;2023-05-25T06:34:52;100677.42;;;15.08;54.58
12536;BME280;6334;48.696;2.114;2023-05-25T06:37:22;100674.95;;;15.22;55.60
12536;BME280;6334;48.696;2.114;2023-05-25T06:39:52;100678.08;;;15.55;55.15
12536;BME280;6334;48.696;2.114;2023-05-25T06:42:25;100671.71;;;15.97;53.57
12536;BME280;6334;48.696;2.114;2023-05-25T06:44:56;100670.41;;;15.74;54.21
12536;BME280;6334;48.696;2.114;2023-05-25T06:47:30;100672.60;;;15.38;55.20
12536;BME280;6334;48.696;2.114;2023-05-25T06:50:02;100659.73;;;15.89;54.51
12536;BME280;6334;48.696;2.114;2023-05-25T06:52:32;100665.73;;;16.05;52.56
12536;BME280;6334;48.696;2.114;2023-05-25T06:55:02;100669.51;;;15.83;52.42
12536;BME280;6334;48.696;2.114;2023-05-25T06:57:32;100670.41;;;15.73;52.60
12536;BME280;6334;48.696;2.114;2023-05-25T07:00:05;100674.45;;;16.12;52.16
12536;BME280;6334;48.696;2.114;2023-05-25T07:02:35;100669.09;;;16.29;53.06
12536;BME280;6334;48.696;2.114;2023-05-25T07:05:05;100667.16;;;16.58;51.99
12536;BME280;6334;48.696;2.114;2023-05-25T07:07:35;100676.54;;;16.39;52.05
12536;BME280;6334;48.696;2.114;2023-05-25T07:10:05;100669.86;;;16.57;50.50
12536;BME280;6334;48.696;2.114;2023-05-25T07:12:36;100667.33;;;16.28;49.84
12536;BME280;6334;48.696;2.114;2023-05-25T07:15:06;100665.17;;;16.62;50.73
12536;BME280;6334;48.696;2.114;2023-05-25T07:17:36;100668.75;;;16.52;50.83
12536;BME280;6334;48.696;2.114;2023-05-25T07:20:07;100672.87;;;16.61;50.74
12536;BME280;6334;48.696;2.114;2023-05-25T07:22:37;100673.12;;;16.22;50.54
12536;BME280;6334;48.696;2.114;2023-05-25T07:25:07;100661.42;;;16.78;49.70
12536;BME280;6334;48.696;2.114;2023-05-25T07:27:37;100666.81;;;17.03;50.21
12536;BME280;6334;48.696;2.114;2023-05-25T07:30:07;100664.16;;;16.75;50.75
12536;BME280;6334;48.696;2.114;2023-05-25T07:32:37;100656.26;;;16.67;50.18
12536;BME280;6334;48.696;2.114;2023-05-25T07:35:08;100662.55;;;16.76;48.83
12536;BME280;6334;48.696;2.114;2023-05-25T07:37:38;100663.84;;;17.00;48.71
12536;BME280;6334;48.696;2.114;2023-05-25T07:40:08;100664.62;;;16.58;49.26
12536;BME280;6334;48.696;2.114;2023-05-25T07:42:38;100662.06;;;17.18;47.22
12536;BME280;6334;48.696;2.114;2023-05-25T07:45:08;100654.52;;;16.91;48.00
12536;BME280;6334;48.696;2.114;2023-05-25T07:47:37;100648.13;;;16.94;46.92
12536;BME280;6334;48.696;2.114;2023-05-25T07:50:09;100653.66;;;17.13;46.16
12536;BME280;6334;48.696;2.114;2023-05-25T07:55:15;100658.85;;;17.10;46.31
12536;BME280;6334;48.696;2.114;2023-05-25T07:57:45;100659.54;;;17.22;46.94
12536;BME280;6334;48.696;2.114;2023-05-25T08:00:15;100668.17;;;17.34;45.52
12536;BME280;6334;48.696;2.114;2023-05-25T08:05:19;100661.56;;;17.06;45.53
12536;BME280;6334;48.696;2.114;2023-05-25T08:07:49;100678.94;;;17.42;45.03
12536;BME280;6334;48.696;2.114;2023-05-25T08:10:19;100678.88;;;17.75;45.44
12536;BME280;6334;48.696;2.114;2023-05-25T08:12:49;100670.89;;;17.74;46.02
12536;BME280;6334;48.696;2.114;2023-05-25T08:15:23;100671.31;;;17.66;43.84
12536;BME280;6334;48.696;2.114;2023-05-25T08:17:54;100667.21;;;17.52;45.03
12536;BME280;6334;48.696;2.114;2023-05-25T08:20:23;100679.91;;;17.79;42.74
12536;BME280;6334;48.696;2.114;2023-05-25T08:22:53;100675.80;;;17.43;42.01
12536;BME280;6334;48.696;2.114;2023-05-25T08:25:23;100676.99;;;17.81;43.84
12536;BME280;6334;48.696;2.114;2023-05-25T08:27:53;100683.94;;;18.01;44.33
12536;BME280;6334;48.696;2.114;2023-05-25T08:30:23;100680.91;;;18.10;44.01
12536;BME280;6334;48.696;2.114;2023-05-25T08:32:53;100691.63;;;18.17;43.49
12536;BME280;6334;48.696;2.114;2023-05-25T08:35:23;100679.14;;;18.32;41.95
12536;BME280;6334;48.696;2.114;2023-05-25T08:37:52;100682.01;;;18.44;41.95
12536;BME280;6334;48.696;2.114;2023-05-25T08:40:22;100691.69;;;18.17;44.22
12536;BME280;6334;48.696;2.114;2023-05-25T08:42:52;100683.16;;;18.07;42.32
12536;BME280;6334;48.696;2.114;2023-05-25T08:45:22;100683.91;;;18.50;41.90
12536;BME280;6334;48.696;2.114;2023-05-25T08:47:56;100693.59;;;18.41;40.67
12536;BME280;6334;48.696;2.114;2023-05-25T08:50:21;100673.70;;;18.19;40.60
12536;BME280;6334;48.696;2.114;2023-05-25T08:55:26;100672.00;;;18.49;40.12
12536;BME280;6334;48.696;2.114;2023-05-25T08:58:15;100688.67;;;18.29;40.47
12536;BME280;6334;48.696;2.114;2023-05-25T09:00:47;100705.70;;;18.47;41.30
12536;BME280;6334;48.696;2.114;2023-05-25T09:03:15;100701.25;;;18.80;41.28
12536;BME280;6334;48.696;2.114;2023-05-25T09:05:43;100683.19;;;18.55;41.30
12536;BME280;6334;48.696;2.114;2023-05-25T09:08:17;100666.44;;;18.32;41.49
12536;BME280;6334;48.696;2.114;2023-05-25T09:10:46;100680.41;;;18.72;41.61
12536;BME280;6334;48.696;2.114;2023-05-25T09:15:55;100684.53;;;18.91;42.29
12536;BME280;6334;48.696;2.114;2023-05-25T09:18:27;100681.52;;;18.93;40.77
12536;BME280;6334;48.696;2.114;2023-05-25T09:20:57;100678.27;;;18.52;40.75
12536;BME280;6334;48.696;2.114;2023-05-25T09:23:27;100678.41;;;18.65;40.69
12536;BME280;6334;48.696;2.114;2023-05-25T09:25:57;100687.81;;;18.76;40.49
12536;BME280;6334;48.696;2.114;2023-05-25T09:28:27;100678.91;;;18.98;40.21
12536;BME280;6334;48.696;2.114;2023-05-25T09:30:57;100677.48;;;19.23;41.13
12536;BME280;6334;48.696;2.114;2023-05-25T09:33:27;100679.01;;;19.40;40.71
12536;BME280;6334;48.696;2.114;2023-05-25T09:35:56;100679.31;;;19.14;39.05
12536;BME280;6334;48.696;2.114;2023-05-25T09:38:28;100675.24;;;19.15;37.86
12536;BME280;6334;48.696;2.114;2023-05-25T09:40:58;100672.66;;;19.30;38.32
12536;BME280;6334;48.696;2.114;2023-05-25T09:43:27;100679.17;;;19.30;39.91
12536;BME280;6334;48.696;2.114;2023-05-25T09:45:57;100679.45;;;19.08;37.45
12536;BME280;6334;48.696;2.114;2023-05-25T09:48:27;100682.20;;;19.56;38.50
12536;BME280;6334;48.696;2.114;2023-05-25T09:50:57;100683.89;;;19.53;40.52
12536;BME280;6334;48.696;2.114;2023-05-25T09:53:27;100683.55;;;18.98;38.83
12536;BME280;6334;48.696;2.114;2023-05-25T09:55:59;100692.67;;;19.20;37.96
12536;BME280;6334;48.696;2.114;2023-05-25T09:58:28;100682.45;;;19.62;37.93
12536;BME280;6334;48.696;2.114;2023-05-25T10:00:58;100687.19;;;19.45;38.67
12536;BME280;6334;48.696;2.114;2023-05-25T10:03:28;100678.02;;;19.49;39.31
12536;BME280;6334;48.696;2.114;2023-05-25T10:05:59;100690.16;;;19.41;37.60
12536;BME280;6334;48.696;2.114;2023-05-25T10:08:29;100689.14;;;19.51;38.05
12536;BME280;6334;48.696;2.114;2023-05-25T10:10:59;100680.11;;;19.06;37.80
12536;BME280;6334;48.696;2.114;2023-05-25T10:16:03;100686.70;;;19.36;37.48
12536;BME280;6334;48.696;2.114;2023-05-25T10:18:37;100689.77;;;19.94;38.49
12536;BME280;6334;48.696;2.114;2023-05-25T10:21:05;100694.48;;;19.60;36.69
12536;BME280;6334;48.696;2.114;2023-05-25T10:23:38;100700.19;;;19.95;37.62
12536;BME280;6334;48.696;2.114;2023-05-25T10:26:08;100692.11;;;20.09;38.50
12536;BME280;6334;48.696;2.114;2023-05-25T10:28:38;100685.85;;;20.34;37.11
12536;BME280;6334;48.696;2.114;2023-05-25T10:31:07;100679.34;;;19.99;38.57
12536;BME280;6334;48.696;2.114;2023-05-25T10:36:11;100686.13;;;20.09;38.09
12536;BME280;6334;48.696;2.114;2023-05-25T10:38:41;100675.41;;;20.09;38.23
12536;BME280;6334;48.696;2.114;2023-05-25T10:41:12;100674.59;;;19.92;38.05
12536;BME280;6334;48.696;2.114;2023-05-25T10:43:42;100688.78;;;20.10;36.45
12536;BME280;6334;48.696;2.114;2023-05-25T10:46:13;100680.66;;;19.90;37.47
12536;BME280;6334;48.696;2.114;2023-05-25T10:48:45;100688.91;;;20.26;36.64
12536;BME280;6334;48.696;2.114;2023-05-25T10:51:20;100691.39;;;19.98;35.26
12536;BME280;6334;48.696;2.114;2023-05-25T10:53:57;100690.41;;;20.12;38.16
12536;BME280;6334;48.696;2.114;2023-05-25T10:56:26;100697.34;;;20.07;36.22
12536;BME280;6334;48.696;2.114;2023-05-25T10:58:56;100694.83;;;19.84;34.47
12536;BME280;6334;48.696;2.114;2023-05-25T11:01:26;100686.70;;;20.18;36.01
12536;BME280;6334;48.696;2.114;2023-05-25T11:03:56;100690.69;;;20.45;37.82
12536;BME280;6334;48.696;2.114;2023-05-25T11:09:24;100691.41;;;20.10;37.35
12536;BME280;6334;48.696;2.114;2023-05-25T11:14:30;100688.34;;;20.21;37.50
12536;BME280;6334;48.696;2.114;2023-05-25T11:17:13;100694.55;;;20.18;37.51
12536;BME280;6334;48.696;2.114;2023-05-25T11:22:18;100690.87;;;20.21;37.73
12536;BME280;6334;48.696;2.114;2023-05-25T11:24:48;100688.94;;;20.25;36.74
12536;BME280;6334;48.696;2.114;2023-05-25T11:27:26;100675.56;;;20.49;37.40
12536;BME280;6334;48.696;2.114;2023-05-25T11:29:53;100673.61;;;20.32;36.80
12536;BME280;6334;48.696;2.114;2023-05-25T11:32:23;100682.73;;;20.44;37.46
12536;BME280;6334;48.696;2.114;2023-05-25T11:34:53;100678.73;;;20.08;36.93
12536;BME280;6334;48.696;2.114;2023-05-25T11:37:24;100665.77;;;20.17;37.65
12536;BME280;6334;48.696;2.114;2023-05-25T11:39:58;100678.88;;;20.33;37.52
12536;BME280;6334;48.696;2.114;2023-05-25T11:45:05;100683.00;;;20.50;36.20
12536;BME280;6334;48.696;2.114;2023-05-25T11:47:35;100667.13;;;20.53;36.82
12536;BME280;6334;48.696;2.114;2023-05-25T11:50:05;100671.48;;;20.60;37.46
12536;BME280;6334;48.696;2.114;2023-05-25T11:52:36;100659.47;;;20.65;37.24
12536;BME280;6334;48.696;2.114;2023-05-25T11:55:12;100661.13;;;20.73;37.41
12536;BME280;6334;48.696;2.114;2023-05-25T11:57:41;100651.78;;;20.80;36.45
12536;BME280;6334;48.696;2.114;2023-05-25T12:00:11;100660.17;;;20.82;36.35
12536;BME280;6334;48.696;2.114;2023-05-25T12:02:41;100651.78;;;20.63;35.10
12536;BME280;6334;48.696;2.114;2023-05-25T12:05:11;100659.05;;;20.46;37.14
12536;BME280;6334;48.696;2.114;2023-05-25T12:07:41;100655.86;;;20.60;35.93
12536;BME280;6334;48.696;2.114;2023-05-25T12:10:11;100652.20;;;20.44;36.09
12536;BME280;6334;48.696;2.114;2023-05-25T12:12:44;100657.43;;;20.48;36.48
12536;BME280;6334;48.696;2.114;2023-05-25T12:15:22;100657.47;;;20.72;36.20
12536;BME280;6334;48.696;2.114;2023-05-25T12:17:52;100646.19;;;20.39;35.89
12536;BME280;6334;48.696;2.114;2023-05-25T12:20:22;100642.52;;;20.53;36.58
12536;BME280;6334;48.696;2.114;2023-05-25T12:22:52;100645.73;;;20.65;36.64
12536;BME280;6334;48.696;2.114;2023-05-25T12:25:23;100666.45;;;20.53;35.97
12536;BME280;6334;48.696;2.114;2023-05-25T12:28:11;100658.14;;;20.64;35.45
12536;BME280;6334;48.696;2.114;2023-05-25T12:30:41;100656.98;;;20.79;36.73
12536;BME280;6334;48.696;2.114;2023-05-25T12:35:51;100656.27;;;20.78;35.21
12536;BME280;6334;48.696;2.114;2023-05-25T12:38:21;100658.91;;;21.00;36.05
12536;BME280;6334;48.696;2.114;2023-05-25T12:41:06;100653.98;;;20.83;35.91
12536;BME280;6334;48.696;2.114;2023-05-25T12:43:37;100651.39;;;20.59;36.94
12536;BME280;6334;48.696;2.114;2023-05-25T12:46:07;100647.58;;;20.98;37.46
12536;BME280;6334;48.696;2.114;2023-05-25T12:48:37;100655.20;;;20.90;37.22
12536;BME280;6334;48.696;2.114;2023-05-25T12:51:07;100657.84;;;20.92;37.07
12536;BME280;6334;48.696;2.114;2023-05-25T12:53:49;100659.83;;;21.14;37.54
12536;BME280;6334;48.696;2.114;2023-05-25T12:56:19;100658.84;;;21.35;36.15
12536;BME280;6334;48.696;2.114;2023-05-25T12:58:48;100658.45;;;21.45;35.88
12536;BME280;6334;48.696;2.114;2023-05-25T13:01:19;100665.33;;;21.50;36.85
12536;BME280;6334;48.696;2.114;2023-05-25T13:03:49;100657.42;;;21.01;36.63
12536;BME280;6334;48.696;2.114;2023-05-25T13:06:20;100656.59;;;21.21;37.23
12536;BME280;6334;48.696;2.114;2023-05-25T13:08:50;100658.33;;;21.11;37.81
12536;BME280;6334;48.696;2.114;2023-05-25T13:11:20;100651.38;;;21.24;36.49
12536;BME280;6334;48.696;2.114;2023-05-25T13:13:51;100652.52;;;21.16;37.54
12536;BME280;6334;48.696;2.114;2023-05-25T13:16:21;100653.21;;;20.93;37.23
12536;BME280;6334;48.696;2.114;2023-05-25T13:18:51;100650.98;;;21.09;38.40
12536;BME280;6334;48.696;2.114;2023-05-25T13:21:20;100648.80;;;21.33;37.86
12536;BME280;6334;48.696;2.114;2023-05-25T13:23:51;100650.02;;;21.17;36.03
12536;BME280;6334;48.696;2.114;2023-05-25T13:26:22;100657.48;;;21.09;36.17
12536;BME280;6334;48.696;2.114;2023-05-25T13:28:52;100649.30;;;21.29;38.06
12536;BME280;6334;48.696;2.114;2023-05-25T13:31:22;100650.46;;;21.44;36.80
12536;BME280;6334;48.696;2.114;2023-05-25T13:33:52;100653.08;;;20.94;36.89
12536;BME280;6334;48.696;2.114;2023-05-25T13:36:21;100653.02;;;21.11;36.10
12536;BME280;6334;48.696;2.114;2023-05-25T13:38:52;100652.41;;;21.00;36.74
12536;BME280;6334;48.696;2.114;2023-05-25T13:41:22;100641.30;;;21.06;35.67
12536;BME280;6334;48.696;2.114;2023-05-25T13:43:51;100648.03;;;21.07;37.07
12536;BME280;6334;48.696;2.114;2023-05-25T13:46:22;100649.55;;;20.88;34.56
12536;BME280;6334;48.696;2.114;2023-05-25T13:48:53;100639.63;;;20.87;36.06
12536;BME280;6334;48.696;2.114;2023-05-25T13:51:23;100635.34;;;20.90;35.32
12536;BME280;6334;48.696;2.114;2023-05-25T13:53:54;100632.72;;;20.86;35.07
12536;BME280;6334;48.696;2.114;2023-05-25T13:56:23;100635.47;;;20.91;35.07